Terminal Aerodrome Forecast
Issued by NWS Cleveland, OH

Home | Current Version | Previous Version | Text Only | Print | Product List | Glossary Off
Versions: 1 2 3 4 5 6 7 8 9 10 11 12 13 14

000
FTUS41 KCLE 151500 AAB
TAFMFD
TAF AMD
KMFD 151510Z 1515/1612 31012G18KT P6SM SCT008 OVC015
      TEMPO 1515/1516 BKN008
     FM151600 31014G20KT P6SM BKN025
     FM151900 32014G20KT P6SM SCT025 BKN050
     FM160000 31012KT P6SM SCT250
     FM160300 30003KT P6SM SKC=

USA.gov is the U.S. government's official web portal to all federal, state and local government web resources and services.